Time;durP1;ratioP1;P1;durP2;ratioP2;P2;SDS_P1;SDS_P2;PMS_P1;PMS_P2;Temp;Humidity;BMP_temperature;BMP_pressure;BME280_temperature;BME280_humidity;BME280_pressure;Samples;Min_cycle;Max_cycle;Signal;HPM_P1;HPM_P2
2021/08/24 00:00:35;;;;;;;4.10;3.70;;;14.80;99.90;;;;;;5009595;28;20407;-59
2021/08/24 00:03:03;;;;;;;5.60;4.10;;;14.80;99.90;;;;;;5003362;28;20427;-58
2021/08/24 00:05:42;;;;;;;7.20;4.43;;;14.80;99.90;;;;;;5009895;28;20409;-57
2021/08/24 00:08:08;;;;;;;4.07;3.50;;;14.80;99.90;;;;;;5009493;28;20830;-59
2021/08/24 00:11:06;;;;;;;5.50;3.47;;;14.80;99.90;;;;;;5009728;28;20967;-58
2021/08/24 00:13:37;;;;;;;4.47;3.87;;;14.70;99.90;;;;;;5008031;28;20288;-59
2021/08/24 00:16:06;;;;;;;5.10;3.63;;;14.70;99.90;;;;;;5008723;28;20419;-59
2021/08/24 00:18:39;;;;;;;4.33;3.60;;;14.70;99.90;;;;;;5009938;28;20796;-59
2021/08/24 00:21:08;;;;;;;3.60;3.30;;;14.60;99.90;;;;;;5012564;28;20415;-58
2021/08/24 00:23:37;;;;;;;7.03;4.20;;;14.60;99.90;;;;;;5014025;28;20885;-57
2021/08/24 00:26:05;;;;;;;5.30;3.77;;;14.50;99.90;;;;;;5033085;28;20410;-58
2021/08/24 00:28:34;;;;;;;4.80;3.70;;;14.50;99.90;;;;;;5016646;28;20522;-58
2021/08/24 00:31:03;;;;;;;4.90;3.57;;;14.40;99.90;;;;;;5004215;28;20527;-59
2021/08/24 00:33:31;;;;;;;6.43;4.30;;;14.40;99.90;;;;;;4993285;28;20499;-59
2021/08/24 00:36:03;;;;;;;5.03;3.63;;;14.30;99.90;;;;;;5004971;28;20415;-60
2021/08/24 00:38:34;;;;;;;5.30;4.00;;;14.30;99.90;;;;;;5005681;28;21062;-58
2021/08/24 00:41:02;;;;;;;12.40;3.87;;;14.20;99.90;;;;;;5010865;28;20944;-60
2021/08/24 00:43:30;;;;;;;3.87;3.47;;;14.20;99.90;;;;;;5012957;28;20811;-59
2021/08/24 00:46:18;;;;;;;13.20;3.63;;;14.10;99.90;;;;;;5012403;28;20434;-59
2021/08/24 00:48:53;;;;;;;6.30;3.90;;;14.10;99.90;;;;;;5002406;28;20549;-59
2021/08/24 00:51:41;;;;;;;7.33;3.57;;;14.00;99.90;;;;;;5032574;28;20501;-59
2021/08/24 00:54:12;;;;;;;7.00;3.47;;;14.00;99.90;;;;;;5013764;28;20454;-59
2021/08/24 00:56:44;;;;;;;3.87;3.17;;;14.00;99.90;;;;;;5024167;28;20440;-59
2021/08/24 00:59:15;;;;;;;6.50;3.50;;;13.90;99.90;;;;;;5002083;28;20874;-59
2021/08/24 01:02:03;;;;;;;4.57;3.27;;;13.90;99.90;;;;;;5012439;28;20388;-59
2021/08/24 01:04:36;;;;;;;4.80;3.40;;;13.80;99.90;;;;;;4994041;28;20443;-59
2021/08/24 01:07:17;;;;;;;5.47;3.63;;;13.70;99.90;;;;;;4992778;28;20437;-58
2021/08/24 01:10:12;;;;;;;4.60;3.57;;;13.60;99.90;;;;;;4992963;28;20420;-61
2021/08/24 01:13:02;;;;;;;7.60;3.60;;;13.60;99.90;;;;;;4998745;28;20970;-58
2021/08/24 01:16:07;;;;;;;4.17;3.33;;;13.50;99.90;;;;;;4991976;28;20491;-58
2021/08/24 01:19:05;;;;;;;7.60;3.77;;;13.40;99.90;;;;;;5007547;28;20455;-59
2021/08/24 01:21:59;;;;;;;4.73;3.17;;;13.40;99.90;;;;;;5018257;28;20494;-58
2021/08/24 01:24:34;;;;;;;4.10;3.07;;;13.30;99.90;;;;;;5016776;28;20433;-58
2021/08/24 01:27:33;;;;;;;6.50;3.67;;;13.30;99.90;;;;;;5012304;28;20944;-58
2021/08/24 01:30:18;;;;;;;5.30;3.40;;;13.30;99.90;;;;;;4972093;28;20510;-58
2021/08/24 01:33:05;;;;;;;6.93;3.30;;;13.30;99.90;;;;;;5011923;28;20403;-59
2021/08/24 01:36:06;;;;;;;5.43;3.60;;;13.20;99.90;;;;;;4965370;28;20474;-58
2021/08/24 01:39:00;;;;;;;3.20;2.87;;;13.20;99.90;;;;;;5011827;28;20517;-59
2021/08/24 01:41:40;;;;;;;3.37;3.07;;;13.10;99.90;;;;;;4997644;28;20773;-58
2021/08/24 01:44:44;;;;;;;5.20;3.53;;;13.10;99.90;;;;;;4989216;28;20498;-58
2021/08/24 01:47:30;;;;;;;6.00;3.37;;;13.10;99.90;;;;;;4997975;28;20412;-58
2021/08/24 01:50:09;;;;;;;7.97;4.30;;;13.00;99.90;;;;;;5013139;28;20494;-58
2021/08/24 01:53:00;;;;;;;6.00;3.53;;;13.00;99.90;;;;;;5011585;28;20380;-58
2021/08/24 01:55:32;;;;;;;4.90;3.20;;;13.00;99.90;;;;;;4968455;28;20897;-58
2021/08/24 01:58:18;;;;;;;8.63;3.33;;;12.90;99.90;;;;;;5011040;28;20455;-58
2021/08/24 02:00:48;;;;;;;4.50;3.17;;;12.90;99.90;;;;;;5011526;28;20490;-58
2021/08/24 02:03:18;;;;;;;8.33;3.70;;;12.90;99.90;;;;;;5005497;28;20446;-58
2021/08/24 02:05:53;;;;;;;3.80;3.20;;;12.80;99.90;;;;;;4993142;28;20526;-59
2021/08/24 02:08:26;;;;;;;12.30;3.37;;;12.80;99.90;;;;;;5010577;28;20419;-59
2021/08/24 02:11:01;;;;;;;6.30;3.33;;;12.70;99.90;;;;;;5011207;28;20411;-57
2021/08/24 02:13:48;;;;;;;7.00;4.07;;;12.70;99.90;;;;;;4996867;28;20810;-59
2021/08/24 02:16:31;;;;;;;7.10;3.93;;;12.60;99.90;;;;;;5009317;28;21204;-58
2021/08/24 02:19:20;;;;;;;6.43;4.23;;;12.60;99.90;;;;;;5013548;28;20509;-58
2021/08/24 02:22:21;;;;;;;5.17;3.77;;;12.60;99.90;;;;;;4992703;28;20510;-59
2021/08/24 02:24:53;;;;;;;3.87;3.40;;;12.50;99.90;;;;;;5010847;28;20497;-59
2021/08/24 02:27:25;;;;;;;5.83;3.70;;;12.50;99.90;;;;;;4993261;28;20449;-58
2021/08/24 02:29:56;;;;;;;3.80;3.00;;;12.40;99.90;;;;;;5000556;28;20439;-59
2021/08/24 02:32:50;;;;;;;4.60;3.20;;;12.40;99.90;;;;;;4991204;28;20401;-58
2021/08/24 02:35:22;;;;;;;4.10;3.20;;;12.30;99.90;;;;;;4965432;28;20478;-58
2021/08/24 02:37:53;;;;;;;5.07;3.30;;;12.30;99.90;;;;;;5009662;28;20455;-58
2021/08/24 02:40:41;;;;;;;4.50;3.50;;;12.30;99.90;;;;;;4993104;28;20502;-58
2021/08/24 02:43:33;;;;;;;4.70;3.53;;;12.20;99.90;;;;;;5010823;28;20779;-57
2021/08/24 02:46:18;;;;;;;6.03;3.40;;;12.20;99.90;;;;;;5004712;28;20432;-61
2021/08/24 02:48:54;;;;;;;5.03;3.00;;;12.20;99.90;;;;;;4991381;28;20436;-58
2021/08/24 02:51:30;;;;;;;5.00;3.70;;;12.20;99.90;;;;;;4991269;28;20921;-58
2021/08/24 02:54:18;;;;;;;5.77;3.53;;;12.10;99.90;;;;;;5009157;28;20450;-58
2021/08/24 02:56:44;;;;;;;6.03;3.50;;;12.10;99.90;;;;;;4991001;28;20412;-59
2021/08/24 02:59:36;;;;;;;7.03;3.50;;;12.10;99.90;;;;;;4990293;28;20444;-59
2021/08/24 03:02:31;;;;;;;5.20;3.67;;;12.10;99.90;;;;;;4996053;28;20177;-58
2021/08/24 03:04:57;;;;;;;5.43;3.67;;;12.00;99.90;;;;;;4998824;28;20436;-58
2021/08/24 03:07:29;;;;;;;6.40;3.93;;;12.00;99.90;;;;;;5006280;28;20462;-58
2021/08/24 03:10:02;;;;;;;5.73;3.50;;;12.00;99.90;;;;;;5010358;28;20182;-58
2021/08/24 03:12:58;;;;;;;4.40;3.20;;;11.90;99.90;;;;;;4989131;28;20435;-57
2021/08/24 03:15:36;;;;;;;4.83;3.60;;;11.90;99.90;;;;;;5008111;28;20974;-58
2021/08/24 03:18:08;;;;;;;9.63;4.00;;;11.90;99.90;;;;;;5009707;28;20477;-59
2021/08/24 03:20:42;;;;;;;5.20;3.77;;;11.90;99.90;;;;;;5009583;28;20411;-58
2021/08/24 03:23:15;;;;;;;5.30;4.00;;;11.90;99.90;;;;;;4990500;28;20392;-59
2021/08/24 03:25:49;;;;;;;9.10;3.97;;;11.90;99.90;;;;;;5009611;28;20859;-58
2021/08/24 03:28:21;;;;;;;4.83;3.60;;;11.90;99.90;;;;;;5009439;28;20888;-59
2021/08/24 03:30:47;;;;;;;4.60;3.43;;;11.90;99.90;;;;;;5007335;28;20486;-58
2021/08/24 03:33:14;;;;;;;5.27;3.77;;;11.90;99.90;;;;;;4991921;28;20411;-58
2021/08/24 03:35:46;;;;;;;4.03;3.50;;;11.90;99.90;;;;;;5009893;28;20418;-58
2021/08/24 03:38:12;;;;;;;3.33;2.80;;;11.90;99.90;;;;;;5009514;28;20942;-59
2021/08/24 03:40:38;;;;;;;5.97;3.57;;;11.80;99.90;;;;;;4998783;28;20518;-59
2021/08/24 03:43:05;;;;;;;4.57;3.60;;;11.80;99.90;;;;;;5009877;28;20495;-59
2021/08/24 03:45:31;;;;;;;5.57;3.60;;;11.80;99.90;;;;;;5009942;28;20800;-59
2021/08/24 03:47:57;;;;;;;8.63;4.10;;;11.70;99.90;;;;;;4987736;28;20455;-58
2021/08/24 03:50:23;;;;;;;3.70;3.10;;;11.70;99.90;;;;;;4990206;28;20405;-58
2021/08/24 03:52:49;;;;;;;3.77;3.23;;;11.70;99.90;;;;;;4993556;28;20407;-58
2021/08/24 03:55:16;;;;;;;4.57;3.67;;;11.60;99.90;;;;;;5012259;28;21039;-58
2021/08/24 03:57:43;;;;;;;9.60;4.00;;;11.60;99.90;;;;;;5016498;28;20916;-59
2021/08/24 04:00:10;;;;;;;4.83;3.37;;;11.60;99.90;;;;;;5013794;28;20411;-58
2021/08/24 04:02:35;;;;;;;4.60;3.50;;;11.60;99.90;;;;;;5013461;28;20498;-58
2021/08/24 04:05:02;;;;;;;6.50;3.30;;;11.50;99.90;;;;;;4990986;28;20510;-57
2021/08/24 04:07:29;;;;;;;5.10;2.90;;;11.50;99.90;;;;;;5012894;28;20172;-59
2021/08/24 04:09:55;;;;;;;3.57;3.17;;;11.50;99.90;;;;;;5012914;28;20798;-59
2021/08/24 04:12:21;;;;;;;2.67;2.40;;;11.40;99.90;;;;;;5013005;28;20426;-59
2021/08/24 04:14:48;;;;;;;5.20;3.13;;;11.40;99.90;;;;;;5004251;28;20288;-59
2021/08/24 04:17:13;;;;;;;6.20;3.50;;;11.40;99.90;;;;;;4993637;28;20400;-57
2021/08/24 04:19:39;;;;;;;3.60;3.27;;;11.40;99.90;;;;;;4994527;28;20446;-59
2021/08/24 04:22:10;;;;;;;5.43;3.20;;;11.40;99.90;;;;;;4998407;28;20168;-58
2021/08/24 04:24:36;;;;;;;9.20;3.43;;;11.30;99.90;;;;;;5004999;28;20682;-58
2021/08/24 04:27:03;;;;;;;5.40;3.23;;;11.30;99.90;;;;;;4999306;28;20502;-59
2021/08/24 04:29:29;;;;;;;6.10;4.60;;;11.30;99.90;;;;;;5012705;28;20799;-58
2021/08/24 04:31:56;;;;;;;8.67;3.63;;;11.30;99.90;;;;;;5009173;28;20440;-58
2021/08/24 04:34:22;;;;;;;6.20;3.50;;;11.30;99.90;;;;;;5012723;28;20462;-58
2021/08/24 04:36:47;;;;;;;6.10;3.67;;;11.20;99.90;;;;;;5012243;28;20415;-58
2021/08/24 04:39:13;;;;;;;7.13;4.00;;;11.20;99.90;;;;;;4994654;28;20193;-58
2021/08/24 04:41:38;;;;;;;10.13;4.70;;;11.10;99.90;;;;;;5005054;28;20664;-57
2021/08/24 04:44:04;;;;;;;12.53;4.27;;;11.10;99.90;;;;;;5012786;28;20261;-58
2021/08/24 04:46:30;;;;;;;7.17;4.00;;;11.10;99.90;;;;;;5012969;28;20631;-57
2021/08/24 04:48:55;;;;;;;4.37;3.70;;;11.10;99.90;;;;;;5012461;28;20263;-59
2021/08/24 04:51:21;;;;;;;5.40;3.30;;;11.10;99.90;;;;;;5010725;28;20184;-58
2021/08/24 04:53:47;;;;;;;10.73;5.20;;;11.10;99.90;;;;;;5015312;28;20685;-58
2021/08/24 04:56:12;;;;;;;7.10;3.40;;;11.10;99.90;;;;;;5012820;28;20665;-59
2021/08/24 04:58:38;;;;;;;7.83;3.50;;;11.10;99.90;;;;;;5010555;28;20645;-58
2021/08/24 05:01:04;;;;;;;6.50;3.40;;;11.10;99.90;;;;;;4999116;28;20180;-59
2021/08/24 05:03:30;;;;;;;8.80;3.53;;;11.10;99.90;;;;;;5010407;28;20223;-59
2021/08/24 05:05:56;;;;;;;5.57;3.50;;;11.10;99.90;;;;;;5011153;28;20172;-58
2021/08/24 05:08:22;;;;;;;7.33;3.40;;;11.20;99.90;;;;;;4976867;28;20482;-58
2021/08/24 05:10:47;;;;;;;13.90;3.87;;;11.20;99.90;;;;;;4993663;28;20203;-58
2021/08/24 05:13:13;;;;;;;5.63;3.60;;;11.20;99.90;;;;;;4995076;28;20451;-59
2021/08/24 05:15:39;;;;;;;10.43;3.30;;;11.30;99.90;;;;;;5005919;28;20246;-58
2021/08/24 05:18:05;;;;;;;5.27;3.83;;;11.40;99.90;;;;;;5011681;28;20435;-57
2021/08/24 05:20:30;;;;;;;6.40;3.90;;;11.40;99.90;;;;;;4994470;28;20178;-58
2021/08/24 05:22:57;;;;;;;6.27;3.63;;;11.50;99.90;;;;;;5012866;28;20920;-58
2021/08/24 05:25:24;;;;;;;5.10;3.53;;;11.60;99.90;;;;;;5006871;28;20697;-59
2021/08/24 05:27:50;;;;;;;8.63;4.70;;;11.60;99.90;;;;;;4994688;28;20510;-58
2021/08/24 05:30:21;;;;;;;8.80;4.70;;;11.70;99.90;;;;;;5012177;28;20519;-57
2021/08/24 05:32:48;;;;;;;10.60;4.33;;;11.70;99.90;;;;;;4990888;28;20455;-58
2021/08/24 05:35:14;;;;;;;14.67;4.07;;;11.80;99.90;;;;;;5008630;28;20738;-58
2021/08/24 05:37:39;;;;;;;11.43;4.60;;;11.90;99.90;;;;;;5011732;28;20551;-58
2021/08/24 05:40:07;;;;;;;5.93;4.00;;;12.00;99.90;;;;;;5011105;28;20165;-60
2021/08/24 05:42:32;;;;;;;4.77;4.27;;;12.00;99.90;;;;;;5005081;28;20420;-58
2021/08/24 05:44:58;;;;;;;5.60;4.23;;;12.10;99.90;;;;;;4991134;28;20435;-58
2021/08/24 05:47:27;;;;;;;8.37;3.73;;;12.20;99.90;;;;;;4991906;28;20253;-58
2021/08/24 05:49:52;;;;;;;7.30;3.70;;;12.20;99.90;;;;;;4990570;28;20177;-58
2021/08/24 05:52:18;;;;;;;8.13;3.57;;;12.30;99.90;;;;;;5000112;28;20514;-58
2021/08/24 05:54:43;;;;;;;4.33;3.57;;;12.40;99.90;;;;;;4994094;28;20211;-58
2021/08/24 05:57:10;;;;;;;8.00;3.90;;;12.50;99.90;;;;;;5011186;28;20636;-58
2021/08/24 05:59:36;;;;;;;5.90;3.27;;;12.50;99.90;;;;;;5012341;28;20188;-58
2021/08/24 06:02:02;;;;;;;8.23;3.50;;;12.60;99.90;;;;;;5011563;28;20411;-59
2021/08/24 06:04:29;;;;;;;9.43;3.50;;;12.70;99.90;;;;;;4994592;28;20424;-58
2021/08/24 06:06:55;;;;;;;8.67;4.23;;;12.70;99.90;;;;;;5011307;28;20435;-58
2021/08/24 06:09:20;;;;;;;7.30;4.53;;;12.80;99.90;;;;;;5005702;28;20478;-58
2021/08/24 06:11:50;;;;;;;6.17;3.70;;;12.90;99.90;;;;;;5011199;28;20172;-58
2021/08/24 06:14:17;;;;;;;7.90;3.80;;;12.90;99.90;;;;;;5010807;28;20193;-59
2021/08/24 06:16:43;;;;;;;5.03;3.33;;;13.00;99.90;;;;;;5003733;28;20519;-58
2021/08/24 06:19:10;;;;;;;4.43;3.17;;;13.10;99.90;;;;;;5003695;28;21434;-59
2021/08/24 06:21:37;;;;;;;6.57;3.63;;;13.10;99.90;;;;;;5011195;28;20223;-59
2021/08/24 06:24:04;;;;;;;11.03;3.80;;;13.20;99.90;;;;;;5010975;28;20451;-58
2021/08/24 06:26:30;;;;;;;6.77;3.87;;;13.30;99.90;;;;;;5000858;28;20443;-58
2021/08/24 06:28:56;;;;;;;13.53;4.00;;;13.40;99.90;;;;;;5010220;28;20450;-58
2021/08/24 06:31:25;;;;;;;8.27;4.00;;;13.50;99.90;;;;;;4993240;28;20411;-58
2021/08/24 06:33:52;;;;;;;7.90;4.03;;;13.60;99.90;;;;;;5006080;28;20694;-59
2021/08/24 06:36:19;;;;;;;5.20;3.40;;;13.70;99.90;;;;;;4990142;28;20479;-59
2021/08/24 06:38:46;;;;;;;5.27;3.77;;;13.70;99.90;;;;;;5010178;28;20431;-58
2021/08/24 06:41:12;;;;;;;7.83;4.00;;;13.60;99.90;;;;;;4993265;28;20506;-58
2021/08/24 06:43:38;;;;;;;9.00;3.40;;;13.60;99.90;;;;;;5003018;28;20472;-58
2021/08/24 06:46:04;;;;;;;10.60;3.80;;;13.60;99.90;;;;;;4992750;28;20989;-59
2021/08/24 06:48:30;;;;;;;11.13;4.40;;;13.70;99.90;;;;;;5010314;28;20450;-58
2021/08/24 06:50:55;;;;;;;9.33;3.80;;;13.70;99.90;;;;;;5010464;28;20935;-57
2021/08/24 06:53:21;;;;;;;9.67;3.90;;;13.70;99.90;;;;;;4996657;28;20181;-58
2021/08/24 06:55:47;;;;;;;9.10;4.70;;;13.80;99.90;;;;;;4991120;28;20177;-58
2021/08/24 06:58:13;;;;;;;7.27;4.87;;;13.80;99.90;;;;;;4990155;28;20769;-59
2021/08/24 07:00:40;;;;;;;9.07;4.67;;;13.90;99.90;;;;;;5002414;28;20184;-58
2021/08/24 07:03:06;;;;;;;8.10;4.47;;;13.90;99.90;;;;;;5005043;28;20515;-58
2021/08/24 07:05:33;;;;;;;7.97;3.90;;;14.00;99.90;;;;;;4973606;28;20444;-59
2021/08/24 07:07:59;;;;;;;9.33;4.17;;;14.00;99.90;;;;;;4990743;28;20424;-58
2021/08/24 07:10:26;;;;;;;6.00;4.03;;;14.00;99.90;;;;;;4997847;28;20454;-58
2021/08/24 07:12:52;;;;;;;8.27;4.20;;;14.00;99.90;;;;;;5002877;28;20502;-60
2021/08/24 07:15:22;;;;;;;7.10;4.37;;;14.10;99.90;;;;;;5009924;28;20980;-58
2021/08/24 07:17:52;;;;;;;8.27;4.00;;;14.10;99.90;;;;;;5010148;28;20207;-55
2021/08/24 07:20:21;;;;;;;8.70;4.00;;;14.10;99.90;;;;;;5009991;28;20462;-58
2021/08/24 07:22:48;;;;;;;8.20;4.10;;;14.20;99.90;;;;;;4990651;28;20475;-59
2021/08/24 07:25:17;;;;;;;6.70;3.50;;;14.20;99.90;;;;;;5004810;28;20489;-58
2021/08/24 07:27:43;;;;;;;4.60;3.63;;;14.30;99.90;;;;;;4994314;28;20477;-58
2021/08/24 07:30:10;;;;;;;5.93;3.50;;;14.50;99.90;;;;;;5017130;28;20646;-58
2021/08/24 07:32:38;;;;;;;3.63;2.80;;;14.60;99.90;;;;;;5011945;28;20179;-57
2021/08/24 07:35:04;;;;;;;5.57;4.23;;;14.70;99.90;;;;;;5010312;28;20946;-59
2021/08/24 07:37:30;;;;;;;5.93;3.57;;;14.90;99.90;;;;;;4991227;28;20401;-58
2021/08/24 07:39:56;;;;;;;5.33;3.40;;;15.10;99.90;;;;;;5009549;28;20418;-61
2021/08/24 07:42:22;;;;;;;7.80;3.30;;;15.40;99.90;;;;;;4991750;28;20180;-59
2021/08/24 07:44:47;;;;;;;6.03;3.27;;;15.50;99.90;;;;;;4998898;28;20650;-59
2021/08/24 07:47:13;;;;;;;9.53;3.33;;;15.50;99.90;;;;;;4989915;28;20408;-59
2021/08/24 07:49:39;;;;;;;7.03;3.10;;;15.50;99.60;;;;;;4989845;28;20193;-59
2021/08/24 07:52:07;;;;;;;3.37;3.07;;;15.40;99.70;;;;;;5003581;28;20184;-58
2021/08/24 07:54:33;;;;;;;3.73;2.90;;;15.40;99.50;;;;;;4990229;28;20459;-58
2021/08/24 07:56:59;;;;;;;4.80;3.40;;;15.30;99.30;;;;;;4972702;28;20431;-59
2021/08/24 07:59:24;;;;;;;5.50;2.80;;;15.30;99.90;;;;;;4989882;28;20973;-58
2021/08/24 08:01:55;;;;;;;4.87;3.17;;;15.30;99.90;;;;;;4997388;28;20172;-59
2021/08/24 08:04:25;;;;;;;6.10;3.07;;;15.30;99.90;;;;;;5009726;28;20673;-60
2021/08/24 08:06:51;;;;;;;3.80;2.80;;;15.40;99.90;;;;;;4989037;28;20419;-59
2021/08/24 08:09:20;;;;;;;7.83;3.20;;;15.50;99.80;;;;;;4999511;28;20448;-59
2021/08/24 08:11:46;;;;;;;5.50;3.10;;;15.50;99.70;;;;;;4996635;28;20815;-58
2021/08/24 08:14:12;;;;;;;3.60;2.77;;;15.50;99.30;;;;;;5010098;28;20451;-59
2021/08/24 08:16:38;;;;;;;9.10;2.83;;;15.50;99.40;;;;;;5009843;28;20642;-58
2021/08/24 08:19:04;;;;;;;4.53;3.40;;;15.50;99.50;;;;;;4996309;28;20462;-58
2021/08/24 08:21:32;;;;;;;5.10;2.90;;;15.40;99.30;;;;;;4994687;28;20172;-58
2021/08/24 08:23:57;;;;;;;5.50;3.53;;;15.50;99.40;;;;;;5012340;28;20653;-58
2021/08/24 08:26:23;;;;;;;4.00;2.57;;;15.50;99.50;;;;;;4988968;28;20506;-58
2021/08/24 08:28:51;;;;;;;7.27;3.40;;;15.60;99.30;;;;;;4989780;28;20440;-58
2021/08/24 08:31:17;;;;;;;3.93;2.53;;;15.60;99.50;;;;;;4991814;28;20165;-58
2021/08/24 08:33:43;;;;;;;5.17;2.63;;;15.70;99.00;;;;;;5009123;28;20455;-58
2021/08/24 08:36:09;;;;;;;3.40;2.33;;;15.80;99.00;;;;;;5003377;28;20773;-59
2021/08/24 08:38:35;;;;;;;7.50;2.77;;;15.80;98.70;;;;;;5009272;28;20220;-59
2021/08/24 08:41:15;;;;;;;3.70;2.50;;;15.90;98.50;;;;;;4994853;28;20415;-58
2021/08/24 08:43:58;;;;;;;4.10;2.90;;;16.00;98.30;;;;;;5005643;28;20180;-58
2021/08/24 08:46:34;;;;;;;3.40;2.40;;;16.00;98.00;;;;;;4995076;28;20943;-57
2021/08/24 08:49:44;;;;;;;4.17;2.50;;;16.10;98.10;;;;;;5012507;28;20422;-58
2021/08/24 08:52:17;;;;;;;3.20;2.70;;;16.20;97.40;;;;;;5006639;28;20428;-59
2021/08/24 08:54:55;;;;;;;6.00;2.70;;;16.30;97.50;;;;;;4993419;28;20455;-58
2021/08/24 08:57:40;;;;;;;6.93;2.83;;;16.30;97.00;;;;;;4993682;28;20412;-59
2021/08/24 09:00:13;;;;;;;4.47;2.73;;;16.30;97.20;;;;;;5007464;28;20423;-59
2021/08/24 09:03:00;;;;;;;4.90;3.13;;;16.30;96.80;;;;;;5009577;28;20431;-60
2021/08/24 09:05:27;;;;;;;4.70;2.90;;;16.30;96.90;;;;;;5013050;28;20402;-60
2021/08/24 09:07:58;;;;;;;4.70;3.00;;;16.30;96.60;;;;;;5011985;28;21053;-64
2021/08/24 09:10:28;;;;;;;5.00;2.90;;;16.20;96.60;;;;;;5014122;28;20514;-59
2021/08/24 09:13:07;;;;;;;4.50;2.60;;;16.30;96.90;;;;;;5012375;28;20403;-59
2021/08/24 09:15:43;;;;;;;4.70;3.03;;;16.50;97.70;;;;;;5011720;28;20454;-59
2021/08/24 09:18:15;;;;;;;4.53;3.60;;;16.60;97.10;;;;;;5011753;28;20799;-59
2021/08/24 09:20:55;;;;;;;3.87;2.93;;;16.70;96.60;;;;;;5000457;28;20511;-58
2021/08/24 09:23:20;;;;;;;5.43;3.83;;;16.60;96.20;;;;;;4975609;28;20435;-59
2021/08/24 09:26:10;;;;;;;6.10;3.50;;;16.60;95.80;;;;;;5011383;28;20419;-59
2021/08/24 09:28:36;;;;;;;5.03;3.50;;;16.50;96.50;;;;;;5011457;28;20272;-59
2021/08/24 09:31:04;;;;;;;5.53;3.20;;;16.50;96.80;;;;;;5004774;28;20522;-59
2021/08/24 09:33:31;;;;;;;5.00;3.30;;;16.40;97.00;;;;;;5012699;28;20275;-58
2021/08/24 09:35:58;;;;;;;6.67;3.17;;;16.30;97.00;;;;;;5011716;28;20422;-59
2021/08/24 09:38:29;;;;;;;4.37;2.93;;;16.20;97.60;;;;;;5009545;28;20474;-60
2021/08/24 09:40:58;;;;;;;3.20;2.90;;;16.20;98.20;;;;;;4994556;28;20858;-59
2021/08/24 09:43:29;;;;;;;6.10;3.50;;;16.10;98.60;;;;;;5011794;28;20792;-59
2021/08/24 09:46:00;;;;;;;4.37;3.30;;;16.10;98.70;;;;;;5012003;28;20394;-59
2021/08/24 09:48:27;;;;;;;4.80;2.90;;;16.00;98.70;;;;;;4995918;28;20452;-57
2021/08/24 09:50:52;;;;;;;5.20;3.10;;;16.00;98.30;;;;;;5010725;28;20977;-58
2021/08/24 09:53:35;;;;;;;4.03;3.37;;;15.90;98.20;;;;;;5011741;28;20491;-58
2021/08/24 09:56:06;;;;;;;4.90;3.40;;;15.80;98.30;;;;;;4991542;28;20177;-59
2021/08/24 09:58:45;;;;;;;4.33;3.20;;;15.70;98.90;;;;;;4991901;28;20446;-58
2021/08/24 10:01:15;;;;;;;4.70;3.20;;;15.70;99.20;;;;;;4998876;28;20939;-59
2021/08/24 10:03:46;;;;;;;3.50;3.10;;;15.70;99.50;;;;;;5011248;28;20482;-58
2021/08/24 10:06:32;;;;;;;5.57;3.53;;;15.60;99.30;;;;;;5007404;28;20431;-59
2021/08/24 10:09:25;;;;;;;5.23;3.50;;;15.60;99.10;;;;;;4995419;28;20423;-61
2021/08/24 10:11:51;;;;;;;6.80;3.67;;;15.60;99.20;;;;;;5002855;28;20427;-61
2021/08/24 10:14:20;;;;;;;7.20;4.27;;;15.60;99.00;;;;;;5004950;28;20522;-59
2021/08/24 10:16:48;;;;;;;6.30;3.90;;;15.60;99.30;;;;;;4995217;28;20430;-58
2021/08/24 10:19:25;;;;;;;5.23;3.53;;;15.70;99.40;;;;;;5011212;28;20909;-58
2021/08/24 10:21:52;;;;;;;4.13;3.60;;;15.70;99.70;;;;;;5011398;28;20383;-58
2021/08/24 10:24:35;;;;;;;4.53;2.93;;;15.70;99.10;;;;;;5009549;28;20442;-59
2021/08/24 10:27:06;;;;;;;3.87;3.37;;;15.80;99.30;;;;;;5011550;28;20445;-59
2021/08/24 10:29:37;;;;;;;3.80;3.13;;;15.90;99.30;;;;;;5011228;28;20475;-60
2021/08/24 10:32:05;;;;;;;5.60;3.20;;;16.00;98.90;;;;;;4992910;28;20775;-58
2021/08/24 10:34:41;;;;;;;5.20;3.90;;;16.00;99.10;;;;;;5003315;28;20893;-59
2021/08/24 10:37:25;;;;;;;3.53;3.17;;;16.10;98.80;;;;;;5010380;28;20461;-59
2021/08/24 10:40:13;;;;;;;5.70;3.40;;;16.10;98.40;;;;;;5010746;28;20420;-59
2021/08/24 10:42:42;;;;;;;3.53;3.13;;;16.10;98.40;;;;;;4997384;28;20490;-60
2021/08/24 10:45:26;;;;;;;6.50;3.87;;;16.10;99.10;;;;;;4991296;28;20462;-59
2021/08/24 10:47:57;;;;;;;7.77;3.20;;;16.10;98.60;;;;;;5006767;28;20447;-59
2021/08/24 10:51:01;;;;;;;5.90;4.20;;;16.00;98.70;;;;;;5010684;28;20518;-59
2021/08/24 10:53:32;;;;;;;6.00;4.30;;;16.00;98.80;;;;;;5010189;28;20510;-60
2021/08/24 10:56:31;;;;;;;5.40;4.40;;;16.10;98.50;;;;;;4992628;28;20419;-59
2021/08/24 10:59:20;;;;;;;7.00;5.27;;;16.20;98.30;;;;;;4991457;28;20491;-59
2021/08/24 11:01:56;;;;;;;6.10;4.77;;;16.30;98.00;;;;;;5009969;28;20427;-58
2021/08/24 11:04:50;;;;;;;6.07;4.77;;;16.40;98.20;;;;;;5009979;28;20414;-59
2021/08/24 11:07:53;;;;;;;6.53;4.27;;;16.70;98.20;;;;;;4985950;28;20415;-59
2021/08/24 11:10:26;;;;;;;6.10;4.43;;;17.00;97.20;;;;;;4989157;28;20585;-60
2021/08/24 11:13:04;;;;;;;6.77;4.80;;;17.50;97.20;;;;;;5010329;28;20761;-59
2021/08/24 11:15:30;;;;;;;8.97;4.20;;;17.70;96.90;;;;;;5011185;28;20465;-59
2021/08/24 11:18:05;;;;;;;8.37;4.67;;;18.00;95.60;;;;;;5003795;28;20968;-60
2021/08/24 11:20:59;;;;;;;4.40;4.00;;;18.30;94.70;;;;;;4992151;28;20180;-59
2021/08/24 11:23:28;;;;;;;6.33;3.80;;;18.40;93.40;;;;;;5009068;28;20903;-60
2021/08/24 11:26:15;;;;;;;5.77;3.47;;;18.40;91.90;;;;;;4989381;28;20482;-60
2021/08/24 11:29:02;;;;;;;4.70;3.43;;;18.20;90.60;;;;;;5011202;28;20900;-60
2021/08/24 11:31:33;;;;;;;3.50;3.20;;;18.00;92.40;;;;;;5009782;28;20877;-59
2021/08/24 11:34:08;;;;;;;3.70;3.40;;;17.80;93.60;;;;;;5007140;28;20538;-59
2021/08/24 11:36:50;;;;;;;7.53;3.90;;;17.80;94.50;;;;;;5006855;28;20476;-59
2021/08/24 11:39:25;;;;;;;5.93;3.47;;;17.90;94.10;;;;;;5011177;28;20485;-60
2021/08/24 11:41:58;;;;;;;3.40;3.10;;;18.00;94.50;;;;;;4999409;28;20474;-58
2021/08/24 11:44:31;;;;;;;5.90;3.80;;;18.10;94.30;;;;;;4993720;28;20790;-60
2021/08/24 11:47:03;;;;;;;3.43;3.13;;;18.10;93.20;;;;;;5009486;28;20407;-59
2021/08/24 11:49:49;;;;;;;2.97;2.73;;;18.10;93.50;;;;;;5006436;28;20951;-59
2021/08/24 11:52:35;;;;;;;3.20;2.90;;;18.10;93.80;;;;;;5008877;28;20809;-59
2021/08/24 11:55:16;;;;;;;5.17;3.10;;;18.30;94.80;;;;;;4994765;28;20458;-60
2021/08/24 11:58:01;;;;;;;4.00;3.27;;;18.50;94.20;;;;;;5008666;28;20565;-60
2021/08/24 12:00:27;;;;;;;3.13;2.80;;;18.60;92.60;;;;;;4989719;28;20408;-58
2021/08/24 12:02:53;;;;;;;19.53;3.30;;;18.70;92.20;;;;;;4989170;28;20417;-60
2021/08/24 12:05:30;;;;;;;3.30;3.00;;;18.70;91.80;;;;;;5006232;28;20774;-60
2021/08/24 12:08:12;;;;;;;3.13;2.70;;;18.80;92.80;;;;;;4996522;28;20747;-59
2021/08/24 12:11:13;;;;;;;3.67;2.40;;;19.20;92.30;;;;;;4987944;28;20420;-60
2021/08/24 12:13:53;;;;;;;4.40;2.93;;;19.40;89.50;;;;;;4988986;28;20797;-60
2021/08/24 12:16:25;;;;;;;2.77;2.57;;;19.20;86.80;;;;;;4976016;28;20408;-60
2021/08/24 12:18:53;;;;;;;2.60;2.40;;;19.10;87.00;;;;;;5014988;28;20454;-59
2021/08/24 12:21:37;;;;;;;3.67;3.10;;;19.10;85.30;;;;;;5012704;28;21007;-59
2021/08/24 12:24:39;;;;;;;2.77;2.57;;;19.00;83.50;;;;;;5012248;28;20470;-58
2021/08/24 12:27:04;;;;;;;3.47;2.77;;;18.90;81.80;;;;;;5009426;28;20748;-59
2021/08/24 12:29:34;;;;;;;3.40;2.80;;;18.80;82.60;;;;;;5011718;28;20458;-59
2021/08/24 12:32:03;;;;;;;2.70;2.50;;;18.60;84.00;;;;;;5012696;28;20164;-59
2021/08/24 12:34:34;;;;;;;3.33;2.90;;;18.70;89.10;;;;;;5012031;28;20486;-59
2021/08/24 12:37:06;;;;;;;2.80;2.60;;;18.90;88.40;;;;;;5005972;28;20427;-59
2021/08/24 12:39:31;;;;;;;2.70;2.50;;;18.90;85.20;;;;;;5029185;28;20468;-59
2021/08/24 12:42:21;;;;;;;3.60;2.70;;;18.80;83.60;;;;;;5012597;28;20403;-58
2021/08/24 12:44:51;;;;;;;5.43;2.83;;;18.60;82.80;;;;;;5010600;28;20180;-59
2021/08/24 12:47:30;;;;;;;5.40;2.87;;;18.40;85.90;;;;;;4978671;28;20437;-59
2021/08/24 12:49:57;;;;;;;3.97;2.80;;;18.30;87.90;;;;;;5011438;28;20380;-58
2021/08/24 12:52:26;;;;;;;2.83;2.63;;;18.30;88.90;;;;;;4994749;28;20493;-61
2021/08/24 12:55:09;;;;;;;3.20;2.90;;;18.20;90.70;;;;;;4999828;28;21019;-59
2021/08/24 12:57:42;;;;;;;3.07;2.87;;;18.20;90.60;;;;;;5002634;28;20429;-59
2021/08/24 13:00:18;;;;;;;4.30;2.60;;;18.20;89.60;;;;;;5011779;28;20433;-59
2021/08/24 13:03:11;;;;;;;3.57;3.23;;;18.40;91.30;;;;;;5001561;28;20909;-59
2021/08/24 13:05:37;;;;;;;3.57;3.27;;;18.60;90.80;;;;;;4973753;28;20929;-60
2021/08/24 13:08:09;;;;;;;4.40;3.60;;;18.60;90.10;;;;;;4991588;28;20478;-59
2021/08/24 13:10:44;;;;;;;4.17;3.63;;;18.50;90.90;;;;;;5006728;28;20177;-59
2021/08/24 13:13:34;;;;;;;4.73;4.20;;;18.40;88.70;;;;;;5010763;28;20936;-58
2021/08/24 13:16:08;;;;;;;7.00;4.17;;;18.20;90.60;;;;;;4963334;28;20435;-59